Time;durP1;ratioP1;P1;durP2;ratioP2;P2;SDS_P1;SDS_P2;PMS_P1;PMS_P2;Temp;Humidity;BMP_temperature;BMP_pressure;BME280_temperature;BME280_humidity;BME280_pressure;Samples;Min_cycle;Max_cycle;Signal;HPM_P1;HPM_P2
2022/01/14 00:02:10;;;;;;;44.63;20.87;;;;;;;-5.30;91.93;96026.34;5089780;28;20206;-75
2022/01/14 00:04:40;;;;;;;42.50;19.23;;;;;;;-5.36;92.59;96016.56;5088643;28;20821;-74
2022/01/14 00:07:08;;;;;;;46.40;19.63;;;;;;;-5.32;92.87;96019.72;5089912;28;20209;-74
2022/01/14 00:09:38;;;;;;;44.10;19.27;;;;;;;-5.33;92.81;96010.50;5089436;28;20223;-74
2022/01/14 00:12:11;;;;;;;42.20;18.97;;;;;;;-5.27;92.02;96018.56;5089804;28;20201;-75
2022/01/14 00:14:42;;;;;;;46.43;20.20;;;;;;;-5.22;92.52;96016.56;5089017;28;20210;-73
2022/01/14 00:17:12;;;;;;;47.93;20.80;;;;;;;-5.38;92.67;96027.69;5089903;28;20325;-73
2022/01/14 00:19:44;;;;;;;50.33;19.90;;;;;;;-5.43;92.88;96022.88;5089894;28;20204;-74
2022/01/14 00:22:16;;;;;;;47.23;20.50;;;;;;;-5.49;94.21;96019.88;5088775;28;20201;-74
2022/01/14 00:33:05;;;;;;;47.57;20.57;;;;;;;-5.44;93.13;96033.09;5089077;28;20195;-74
2022/01/14 00:35:36;;;;;;;44.40;19.40;;;;;;;-5.50;93.45;96036.78;5089494;28;20686;-75
2022/01/14 00:38:04;;;;;;;45.17;20.17;;;;;;;-5.49;93.62;96038.41;5089747;28;20266;-75
2022/01/14 00:40:33;;;;;;;40.80;18.27;;;;;;;-5.42;92.97;96042.22;5088483;28;20204;-75
2022/01/14 00:43:01;;;;;;;44.70;18.67;;;;;;;-5.39;92.99;96036.16;5089211;28;20204;-75
2022/01/14 00:45:30;;;;;;;43.57;18.73;;;;;;;-5.31;91.77;96028.97;5089894;28;20682;-75
2022/01/14 00:48:00;;;;;;;42.27;18.90;;;;;;;-5.25;91.20;96043.78;5090158;28;20238;-75
2022/01/14 00:50:29;;;;;;;45.47;19.37;;;;;;;-5.13;91.59;96038.00;5081107;28;20204;-75
2022/01/14 00:52:59;;;;;;;45.63;19.80;;;;;;;-4.97;90.55;96048.91;5088608;28;20283;-74
2022/01/14 00:55:29;;;;;;;46.27;19.53;;;;;;;-4.86;89.60;96044.03;5088345;28;20624;-75
2022/01/14 01:00:43;;;;;;;40.33;17.90;;;;;;;-4.79;89.01;96052.09;5088741;28;20653;-75
2022/01/14 01:03:12;;;;;;;45.93;18.83;;;;;;;-4.78;88.31;96053.69;5088741;28;20300;-75
2022/01/14 01:05:40;;;;;;;39.93;18.53;;;;;;;-4.69;88.18;96048.09;5088231;28;20239;-75
2022/01/14 01:08:12;;;;;;;38.33;19.00;;;;;;;-4.74;87.20;96042.47;5088892;28;20225;-74
2022/01/14 01:10:47;;;;;;;38.93;18.60;;;;;;;-4.92;87.68;96041.84;5088229;28;20301;-75
2022/01/14 01:13:21;;;;;;;44.20;18.07;;;;;;;-4.94;88.44;96022.56;5081361;28;20196;-74
2022/01/14 01:15:50;;;;;;;48.83;19.43;;;;;;;-4.80;88.61;96033.53;5088394;28;20192;-76
2022/01/14 01:18:18;;;;;;;55.37;21.97;;;;;;;-4.73;87.42;96019.56;5087787;28;20201;-74
2022/01/14 01:20:48;;;;;;;48.43;21.23;;;;;;;-4.71;87.49;96020.31;5087304;28;20208;-74
2022/01/14 01:23:18;;;;;;;48.83;20.50;;;;;;;-4.81;87.56;96020.91;5085707;28;20204;-75
2022/01/14 01:25:52;;;;;;;49.90;21.33;;;;;;;-4.74;86.74;96009.53;5088075;28;20209;-76
2022/01/14 01:28:20;;;;;;;51.67;20.83;;;;;;;-4.82;87.78;96007.44;5087807;28;20250;-76
2022/01/14 01:31:34;;;;;;;43.90;20.03;;;;;;;-4.87;87.20;96006.06;5087696;28;20236;-76
2022/01/14 01:33:53;;;;;;;38.90;17.43;;;;;;;-4.84;88.36;96003.34;5087712;28;20204;-73
2022/01/14 01:36:21;;;;;;;47.50;18.73;;;;;;;-4.89;87.49;96008.72;5087898;28;20236;-74
2022/01/14 01:38:50;;;;;;;36.57;17.10;;;;;;;-4.85;88.03;96002.53;5089067;28;20205;-76
2022/01/14 01:41:18;;;;;;;40.10;17.47;;;;;;;-4.82;87.46;96006.63;5088295;28;20200;-76
2022/01/14 01:43:52;;;;;;;40.03;17.57;;;;;;;-4.79;87.46;96002.19;5087998;28;20227;-76
2022/01/14 01:46:20;;;;;;;40.30;17.87;;;;;;;-4.90;86.94;96003.72;5088059;28;20579;-74
2022/01/14 01:48:49;;;;;;;48.80;18.57;;;;;;;-4.85;87.27;95999.22;5088190;28;20232;-74
2022/01/14 01:51:17;;;;;;;38.00;17.13;;;;;;;-4.82;87.34;95992.22;5088818;28;20657;-74
2022/01/14 01:53:45;;;;;;;40.70;17.70;;;;;;;-4.80;87.48;95995.50;5088437;28;20205;-74
2022/01/14 01:56:16;;;;;;;41.20;17.83;;;;;;;-4.81;86.55;95998.94;5088385;28;20208;-74
2022/01/14 01:58:45;;;;;;;37.73;16.07;;;;;;;-4.92;87.62;95986.09;5087978;28;20212;-74
2022/01/14 02:01:12;;;;;;;36.77;16.83;;;;;;;-4.80;86.64;95975.22;5088927;28;20250;-75
2022/01/14 02:03:41;;;;;;;40.13;16.63;;;;;;;-4.71;86.58;95984.00;5087496;28;20201;-74
2022/01/14 02:06:09;;;;;;;44.03;18.20;;;;;;;-4.81;86.18;95975.31;5087631;28;20269;-75
2022/01/14 02:08:38;;;;;;;46.83;18.23;;;;;;;-4.80;86.13;95961.72;5087354;28;20208;-75
2022/01/14 02:11:06;;;;;;;39.13;17.47;;;;;;;-4.88;86.36;95962.22;5088203;28;20254;-75
2022/01/14 02:13:37;;;;;;;35.47;15.57;;;;;;;-4.80;86.31;95947.34;5088699;28;20204;-75
2022/01/14 02:16:30;;;;;;;48.50;18.60;;;;;;;-4.79;85.52;95941.34;5087444;28;20291;-76
2022/01/14 02:24:55;;;;;;;40.43;17.17;;;;;;;-4.84;85.83;95929.84;5087869;28;20258;-74
2022/01/14 02:27:24;;;;;;;33.17;16.63;;;;;;;-4.76;86.48;95927.69;5088110;28;20200;-74
2022/01/14 02:29:52;;;;;;;37.13;16.17;;;;;;;-4.84;86.32;95923.06;5082374;28;20615;-75
2022/01/14 02:32:21;;;;;;;37.83;16.30;;;;;;;-4.73;86.52;95933.38;5087490;28;20201;-76
2022/01/14 02:34:49;;;;;;;48.23;16.87;;;;;;;-4.65;85.03;95940.53;5087660;28;20205;-76
2022/01/14 02:37:20;;;;;;;35.17;15.87;;;;;;;-4.68;85.92;95933.91;5088060;28;20201;-75
2022/01/14 02:39:48;;;;;;;43.40;17.70;;;;;;;-4.63;85.20;95914.16;5088096;28;20197;-75
2022/01/14 02:42:16;;;;;;;42.87;17.13;;;;;;;-4.65;84.49;95910.09;5088154;28;20254;-75
2022/01/14 02:44:44;;;;;;;35.10;16.07;;;;;;;-4.72;85.81;95914.72;5087572;28;20211;-74
2022/01/14 02:47:12;;;;;;;35.60;16.40;;;;;;;-4.76;85.52;95913.28;5087224;28;20599;-75
2022/01/14 02:49:40;;;;;;;42.43;16.97;;;;;;;-4.64;85.33;95910.00;5087212;28;20228;-75
2022/01/14 02:52:09;;;;;;;36.17;16.67;;;;;;;-4.67;85.81;95920.31;5087559;28;20339;-75
2022/01/14 02:55:02;;;;;;;42.03;18.10;;;;;;;-4.75;85.31;95925.06;5088784;28;20634;-75
2022/01/14 02:57:33;;;;;;;42.07;17.73;;;;;;;-4.67;85.50;95915.25;5091317;28;20200;-74
2022/01/14 03:00:01;;;;;;;38.10;17.70;;;;;;;-4.68;85.13;95913.66;5091632;28;20663;-75
2022/01/14 03:02:31;;;;;;;42.47;17.33;;;;;;;-4.66;85.12;95894.06;5090303;28;20204;-75
2022/01/14 03:05:00;;;;;;;48.83;17.30;;;;;;;-4.63;84.44;95896.41;5091529;28;20201;-75
2022/01/14 03:07:28;;;;;;;40.37;17.97;;;;;;;-4.61;84.28;95901.38;5091925;28;20300;-75
2022/01/14 03:09:58;;;;;;;40.27;16.33;;;;;;;-4.66;85.36;95909.28;5091177;28;20230;-74
2022/01/14 03:12:27;;;;;;;36.10;16.93;;;;;;;-4.68;84.76;95892.53;5090357;28;20215;-75
2022/01/14 03:14:55;;;;;;;36.93;16.97;;;;;;;-4.64;84.96;95893.97;5091512;28;20731;-75
2022/01/14 03:17:24;;;;;;;35.53;16.97;;;;;;;-4.61;84.48;95886.97;5091752;28;20197;-75
2022/01/14 03:19:52;;;;;;;40.27;17.40;;;;;;;-4.82;85.48;95873.09;5090951;28;20197;-75
2022/01/14 03:22:25;;;;;;;38.00;16.57;;;;;;;-4.91;86.27;95878.75;5090115;28;20228;-75
2022/01/14 03:27:40;;;;;;;40.10;16.43;;;;;;;-4.91;86.69;95857.66;5087082;28;20227;-75
2022/01/14 03:30:09;;;;;;;43.57;17.80;;;;;;;-4.86;86.26;95866.59;5083947;28;20747;-74
2022/01/14 03:32:37;;;;;;;36.07;16.10;;;;;;;-4.76;86.27;95866.88;5089938;28;20209;-76
2022/01/14 03:35:06;;;;;;;40.23;17.03;;;;;;;-4.64;85.04;95855.94;5090962;28;20291;-75
2022/01/14 03:37:34;;;;;;;42.53;17.73;;;;;;;-4.57;84.30;95858.91;5091014;28;20209;-75
2022/01/14 03:40:02;;;;;;;47.87;18.10;;;;;;;-4.60;85.31;95854.84;5090397;28;20210;-74
2022/01/14 03:42:30;;;;;;;37.03;16.63;;;;;;;-4.62;84.40;95851.59;5090210;28;20200;-75
2022/01/14 03:44:59;;;;;;;38.97;15.97;;;;;;;-4.75;84.30;95848.19;5090151;28;20216;-75
2022/01/14 03:47:27;;;;;;;42.07;16.07;;;;;;;-4.74;84.56;95845.56;5089940;28;20292;-74
2022/01/14 03:49:54;;;;;;;45.53;16.13;;;;;;;-4.62;84.02;95844.00;5089484;28;20224;-74
2022/01/14 03:52:24;;;;;;;40.37;16.70;;;;;;;-4.61;84.08;95843.06;5089527;28;20721;-74
2022/01/14 03:54:52;;;;;;;45.73;17.00;;;;;;;-4.75;84.18;95849.00;5090611;28;20201;-76
2022/01/14 03:57:20;;;;;;;38.53;17.90;;;;;;;-4.81;84.71;95843.50;5090022;28;20296;-74
2022/01/14 03:59:48;;;;;;;41.17;17.00;;;;;;;-4.79;84.87;95846.78;5089973;28;20208;-74
2022/01/14 04:02:17;;;;;;;38.33;16.80;;;;;;;-4.69;85.11;95853.69;5088981;28;20230;-74
2022/01/14 04:04:46;;;;;;;43.90;19.60;;;;;;;-4.78;83.53;95844.13;5089976;28;20208;-75
2022/01/14 04:07:14;;;;;;;48.77;18.50;;;;;;;-4.73;83.69;95856.50;5089711;28;20207;-75
2022/01/14 04:09:41;;;;;;;43.80;17.57;;;;;;;-4.76;83.88;95846.59;5089687;28;20788;-76
2022/01/14 04:12:17;;;;;;;46.73;17.70;;;;;;;-4.80;84.42;95838.34;5089650;28;20236;-72
2022/01/14 04:17:31;;;;;;;38.67;17.00;;;;;;;-4.72;83.47;95838.69;5094286;28;20203;-73
2022/01/14 04:20:00;;;;;;;36.43;17.77;;;;;;;-4.69;83.31;95832.59;5089697;28;20196;-72
2022/01/14 04:22:29;;;;;;;40.47;17.27;;;;;;;-4.62;82.92;95827.03;5087972;28;20197;-72
2022/01/14 04:24:57;;;;;;;42.43;18.23;;;;;;;-4.57;82.25;95816.63;5089353;28;20204;-72
2022/01/14 04:27:25;;;;;;;41.53;17.63;;;;;;;-4.58;81.47;95817.50;5082498;28;20208;-72
2022/01/14 04:29:53;;;;;;;48.23;18.63;;;;;;;-4.46;81.49;95819.28;5089536;28;20245;-72
2022/01/14 04:32:22;;;;;;;42.47;18.40;;;;;;;-4.42;80.99;95830.03;5088504;28;20519;-71
2022/01/14 04:34:50;;;;;;;39.67;17.93;;;;;;;-4.50;81.02;95832.25;5083263;28;20601;-72
2022/01/14 04:37:17;;;;;;;41.70;18.13;;;;;;;-4.40;81.55;95828.22;5088178;28;20287;-74
2022/01/14 04:39:45;;;;;;;44.20;18.20;;;;;;;-4.33;81.44;95824.38;5089962;28;20313;-72
2022/01/14 04:42:13;;;;;;;41.17;18.67;;;;;;;-4.27;81.07;95836.66;5089102;28;20301;-71
2022/01/14 04:44:41;;;;;;;48.97;18.87;;;;;;;-4.30;80.34;95831.81;5088568;28;20204;-73
2022/01/14 04:47:18;;;;;;;45.23;21.37;;;;;;;-4.35;81.30;95832.06;5089073;28;20201;-74
2022/01/14 04:49:45;;;;;;;61.93;21.97;;;;;;;-4.31;80.53;95827.63;5088150;28;20219;-74
2022/01/14 04:52:14;;;;;;;54.67;23.00;;;;;;;-4.14;80.72;95827.34;5087955;28;20658;-74
2022/01/14 04:54:43;;;;;;;55.23;22.47;;;;;;;-3.97;79.32;95828.75;5087752;28;20200;-74
2022/01/14 04:57:10;;;;;;;50.93;19.63;;;;;;;-4.09;79.82;95818.50;5088277;28;20212;-72
2022/01/14 04:59:37;;;;;;;39.47;17.20;;;;;;;-4.02;79.61;95822.28;5087795;28;20204;-76
2022/01/14 05:02:06;;;;;;;46.53;19.93;;;;;;;-3.92;79.06;95827.56;5088116;28;20205;-73
2022/01/14 05:04:33;;;;;;;49.83;21.20;;;;;;;-3.91;78.60;95824.09;5083888;28;20209;-72
2022/01/14 05:07:03;;;;;;;54.03;21.50;;;;;;;-4.10;79.24;95818.63;5087715;28;20886;-73
2022/01/14 05:09:38;;;;;;;43.73;19.90;;;;;;;-4.30;80.37;95808.97;5086956;28;20208;-73
2022/01/14 05:12:09;;;;;;;42.23;19.70;;;;;;;-4.52;81.13;95799.38;5085050;28;20207;-74
2022/01/14 05:14:37;;;;;;;52.57;22.20;;;;;;;-4.63;81.90;95805.16;5085048;28;20207;-73
2022/01/14 05:17:06;;;;;;;37.17;18.30;;;;;;;-4.66;82.25;95801.97;5087169;28;20277;-74
2022/01/14 05:19:33;;;;;;;40.67;18.50;;;;;;;-4.75;83.54;95815.25;5087189;28;20276;-73
2022/01/14 05:22:02;;;;;;;42.87;19.87;;;;;;;-4.89;83.42;95798.38;5086634;28;20192;-73
2022/01/14 05:24:29;;;;;;;49.03;20.43;;;;;;;-4.77;83.17;95819.59;5086015;28;20196;-74
2022/01/14 05:27:00;;;;;;;44.10;20.23;;;;;;;-4.76;83.33;95824.56;5087811;28;21275;-73
2022/01/14 05:29:28;;;;;;;47.23;18.83;;;;;;;-4.59;82.65;95810.84;5086175;28;20236;-73
2022/01/14 05:32:02;;;;;;;55.03;23.50;;;;;;;-4.54;82.58;95821.50;5086712;28;20216;-73
2022/01/14 05:34:29;;;;;;;60.50;24.37;;;;;;;-4.62;82.04;95804.22;5085625;28;20588;-73
2022/01/14 05:36:57;;;;;;;55.97;24.30;;;;;;;-4.86;83.85;95815.09;5087247;28;20626;-73
2022/01/14 05:39:25;;;;;;;42.63;18.87;;;;;;;-4.98;84.28;95821.75;5087527;28;20631;-72
2022/01/14 05:41:52;;;;;;;45.67;18.23;;;;;;;-5.00;84.86;95818.50;5086308;28;20195;-74
2022/01/14 05:44:23;;;;;;;32.57;15.03;;;;;;;-4.96;84.39;95814.84;5085702;28;20667;-71
2022/01/14 05:46:51;;;;;;;35.33;16.63;;;;;;;-4.88;84.19;95815.22;5086186;28;20208;-72
2022/01/14 05:49:19;;;;;;;42.10;17.97;;;;;;;-4.80;83.46;95815.53;5087498;28;20212;-71
2022/01/14 05:51:47;;;;;;;44.50;19.13;;;;;;;-4.80;83.50;95807.94;5087240;28;20738;-71
2022/01/14 05:54:15;;;;;;;59.53;24.83;;;;;;;-4.71;83.49;95812.44;5086807;28;20196;-71
2022/01/14 05:56:43;;;;;;;61.10;26.90;;;;;;;-4.64;83.27;95811.13;5086773;28;20212;-71
2022/01/14 05:59:11;;;;;;;63.67;26.23;;;;;;;-4.61;83.58;95802.50;5086692;28;20275;-71
2022/01/14 06:01:41;;;;;;;48.50;21.40;;;;;;;-4.59;83.17;95804.03;5087896;28;20212;-71
2022/01/14 06:04:08;;;;;;;60.37;25.47;;;;;;;-4.61;83.94;95802.50;5087126;28;20201;-71
2022/01/14 06:06:37;;;;;;;53.53;22.17;;;;;;;-4.65;84.15;95796.03;5087081;28;20200;-76
2022/01/14 06:09:05;;;;;;;59.37;21.53;;;;;;;-4.78;85.16;95802.75;5086364;28;20709;-72
2022/01/14 06:11:34;;;;;;;51.63;20.30;;;;;;;-4.86;85.81;95789.75;5088195;28;20751;-71
2022/01/14 06:14:01;;;;;;;71.07;24.13;;;;;;;-4.89;85.94;95788.25;5087233;28;20197;-71
2022/01/14 06:16:29;;;;;;;59.90;23.53;;;;;;;-4.79;86.11;95788.47;5085922;28;20266;-71
2022/01/14 06:18:57;;;;;;;52.70;20.40;;;;;;;-4.70;86.35;95795.47;5086762;28;20671;-71
2022/01/14 06:21:25;;;;;;;46.07;20.40;;;;;;;-4.47;85.36;95788.97;5085679;28;20556;-71
2022/01/14 06:23:53;;;;;;;44.97;19.67;;;;;;;-4.45;85.16;95789.66;5087096;28;20209;-71
2022/01/14 06:26:20;;;;;;;47.20;20.13;;;;;;;-4.36;84.88;95789.06;5086810;28;20671;-71
2022/01/14 06:28:47;;;;;;;48.43;20.13;;;;;;;-4.28;85.04;95784.31;5087264;28;20211;-70
2022/01/14 06:31:15;;;;;;;42.33;19.40;;;;;;;-4.18;85.68;95780.22;5090683;28;20228;-72
2022/01/14 06:33:43;;;;;;;52.07;19.90;;;;;;;-4.01;84.58;95782.47;5090812;28;20223;-70
2022/01/14 06:36:13;;;;;;;54.63;21.50;;;;;;;-3.84;84.63;95778.81;5090768;28;20200;-71
2022/01/14 06:38:40;;;;;;;40.60;18.53;;;;;;;-3.78;83.99;95776.66;5090163;28;20205;-71
2022/01/14 06:41:07;;;;;;;38.00;18.07;;;;;;;-3.67;83.71;95781.84;5090780;28;20539;-71
2022/01/14 06:43:35;;;;;;;52.43;21.23;;;;;;;-3.64;83.33;95768.94;5091120;28;20748;-71
2022/01/14 06:46:03;;;;;;;62.17;26.43;;;;;;;-3.61;83.66;95767.94;5090320;28;20195;-73
2022/01/14 06:48:31;;;;;;;54.57;23.07;;;;;;;-3.58;84.58;95768.50;5088496;28;20201;-73
2022/01/14 06:50:59;;;;;;;50.20;18.67;;;;;;;-3.49;85.40;95769.59;5089034;28;20216;-71
2022/01/14 06:53:30;;;;;;;50.93;20.93;;;;;;;-3.31;84.89;95767.53;5089115;28;20208;-72
2022/01/14 06:55:58;;;;;;;43.00;19.70;;;;;;;-3.22;84.99;95765.16;5090437;28;21051;-71
2022/01/14 06:58:26;;;;;;;46.20;20.63;;;;;;;-3.02;84.93;95753.59;5089209;28;20213;-71
2022/01/14 07:00:56;;;;;;;40.50;20.37;;;;;;;-2.88;84.37;95753.44;5088858;28;20228;-71
2022/01/14 07:03:23;;;;;;;38.10;17.70;;;;;;;-2.77;84.32;95752.69;5088908;28;20270;-71
2022/01/14 07:05:51;;;;;;;41.30;18.23;;;;;;;-2.73;84.22;95742.16;5090397;28;20204;-72
2022/01/14 07:08:19;;;;;;;35.63;17.40;;;;;;;-2.55;83.60;95747.66;5088331;28;20289;-72
2022/01/14 07:10:49;;;;;;;32.47;15.73;;;;;;;-2.45;82.93;95751.16;5086585;28;20247;-71
2022/01/14 07:13:18;;;;;;;32.43;15.53;;;;;;;-2.39;82.63;95740.53;5087388;28;20204;-71
2022/01/14 07:15:47;;;;;;;37.17;16.73;;;;;;;-2.21;82.37;95739.16;5090009;28;20679;-72
2022/01/14 07:18:16;;;;;;;43.93;19.23;;;;;;;-2.21;81.48;95718.00;5089646;28;20213;-72
2022/01/14 07:20:44;;;;;;;41.17;19.57;;;;;;;-2.34;81.93;95700.31;5089268;28;20204;-72
2022/01/14 07:23:12;;;;;;;50.10;20.30;;;;;;;-2.17;83.00;95739.75;5089564;28;20197;-72
2022/01/14 07:25:39;;;;;;;44.80;19.03;;;;;;;-2.17;83.08;95735.50;5091625;28;20201;-72
2022/01/14 07:28:08;;;;;;;42.17;19.57;;;;;;;-2.15;83.34;95730.28;5089689;28;20296;-72
2022/01/14 07:30:35;;;;;;;50.10;22.83;;;;;;;-2.07;83.69;95738.13;5086206;28;20310;-72
2022/01/14 07:33:02;;;;;;;59.07;26.40;;;;;;;-2.00;83.47;95731.69;5089498;28;20229;-70
2022/01/14 07:35:30;;;;;;;54.80;24.13;;;;;;;-1.93;82.99;95731.09;5089818;28;20234;-71
2022/01/14 07:37:57;;;;;;;47.57;24.27;;;;;;;-1.91;82.94;95729.25;5089204;28;20219;-73
2022/01/14 07:40:25;;;;;;;51.47;24.57;;;;;;;-1.73;82.94;95716.84;5088853;28;20719;-73
2022/01/14 07:42:53;;;;;;;54.77;23.13;;;;;;;-1.60;82.17;95716.72;5089679;28;20221;-72
2022/01/14 07:45:22;;;;;;;51.97;23.63;;;;;;;-1.64;82.34;95717.88;5089308;28;20209;-72
2022/01/14 07:47:50;;;;;;;55.20;24.87;;;;;;;-1.58;82.35;95717.41;5088864;28;20663;-72
2022/01/14 07:50:17;;;;;;;45.93;20.77;;;;;;;-1.53;82.95;95712.78;5088509;28;20197;-72
2022/01/14 07:52:45;;;;;;;44.63;18.53;;;;;;;-1.40;82.16;95714.25;5089660;28;20200;-72
2022/01/14 07:55:14;;;;;;;44.43;18.10;;;;;;;-1.36;81.63;95715.66;5089037;28;20238;-72
2022/01/14 07:57:41;;;;;;;30.37;15.60;;;;;;;-1.28;81.67;95709.94;5088945;28;20205;-71
2022/01/14 08:00:09;;;;;;;35.23;17.63;;;;;;;-1.28;81.37;95713.31;5088785;28;20290;-71
2022/01/14 08:02:38;;;;;;;38.00;16.07;;;;;;;-1.23;81.98;95711.22;5089109;28;20632;-70
2022/01/14 08:05:06;;;;;;;33.30;15.70;;;;;;;-1.08;81.75;95706.66;5086279;28;20704;-71
2022/01/14 08:07:35;;;;;;;35.03;16.67;;;;;;;-1.06;82.35;95696.31;5086631;28;20200;-71
2022/01/14 08:10:03;;;;;;;40.27;18.90;;;;;;;-1.01;82.75;95694.22;5089739;28;20208;-70
2022/01/14 08:12:31;;;;;;;47.07;19.07;;;;;;;-0.94;82.83;95703.00;5088891;28;20224;-70
2022/01/14 08:14:59;;;;;;;46.33;21.37;;;;;;;-0.81;83.29;95690.91;5090226;28;20291;-71
2022/01/14 08:17:26;;;;;;;47.33;21.30;;;;;;;-0.78;83.88;95690.66;5088717;28;20208;-71
2022/01/14 08:19:54;;;;;;;44.73;20.60;;;;;;;-0.78;85.31;95691.44;5089646;28;20243;-72
2022/01/14 08:22:23;;;;;;;41.73;19.93;;;;;;;-0.76;85.97;95689.59;5087853;28;20188;-72
2022/01/14 08:24:51;;;;;;;41.03;18.63;;;;;;;-0.67;86.15;95688.03;5089476;28;20747;-72
2022/01/14 08:27:22;;;;;;;45.07;20.90;;;;;;;-0.62;86.03;95683.38;5090513;28;20222;-71
2022/01/14 08:29:51;;;;;;;49.23;21.80;;;;;;;-0.56;87.05;95682.88;5089682;28;20232;-71
2022/01/14 08:32:21;;;;;;;44.87;20.87;;;;;;;-0.44;87.17;95678.50;5088227;28;20226;-71
2022/01/14 08:34:48;;;;;;;44.03;20.47;;;;;;;-0.36;87.69;95671.03;5088588;28;20299;-71
2022/01/14 08:37:18;;;;;;;37.83;19.63;;;;;;;-0.32;88.59;95680.06;5088741;28;20800;-72
2022/01/14 08:39:45;;;;;;;41.27;18.67;;;;;;;-0.21;88.57;95674.88;5089591;28;20205;-72
2022/01/14 08:42:14;;;;;;;35.97;15.57;;;;;;;-0.17;87.71;95666.81;5088750;28;20203;-72
2022/01/14 08:44:42;;;;;;;31.63;14.63;;;;;;;-0.04;87.02;95669.16;5088687;28;20295;-73
2022/01/14 08:47:11;;;;;;;31.03;15.07;;;;;;;0.04;86.24;95668.50;5088957;28;20205;-72
2022/01/14 08:49:40;;;;;;;32.63;15.83;;;;;;;0.08;86.20;95669.88;5089701;28;20223;-72
2022/01/14 08:52:09;;;;;;;38.07;16.73;;;;;;;-0.02;88.36;95664.72;5087807;28;20224;-72
2022/01/14 08:54:38;;;;;;;34.53;15.33;;;;;;;0.07;89.05;95669.06;5088776;28;20270;-72
2022/01/14 08:57:06;;;;;;;28.07;11.50;;;;;;;0.18;91.09;95660.50;5089332;28;20212;-71
2022/01/14 08:59:36;;;;;;;34.03;11.33;;;;;;;0.31;92.02;95661.09;5088902;28;20667;-71
2022/01/14 09:02:04;;;;;;;20.33;10.00;;;;;;;0.46;90.87;95660.56;5089092;28;20236;-73
2022/01/14 09:04:33;;;;;;;25.00;9.87;;;;;;;0.42;91.84;95656.69;5087836;28;20205;-73
2022/01/14 09:07:01;;;;;;;21.20;11.03;;;;;;;0.47;92.05;95651.97;5088437;28;20325;-72
2022/01/14 09:09:29;;;;;;;28.93;13.13;;;;;;;0.49;91.92;95644.19;5088906;28;20209;-72
2022/01/14 09:11:58;;;;;;;22.07;9.47;;;;;;;0.53;92.30;95648.91;5089790;28;20225;-72
2022/01/14 09:14:25;;;;;;;21.40;9.97;;;;;;;0.54;92.84;95640.28;5088591;28;20212;-72
2022/01/14 09:16:52;;;;;;;24.97;9.77;;;;;;;0.58;93.17;95651.03;5088424;28;20557;-72
2022/01/14 09:19:20;;;;;;;14.87;7.37;;;;;;;0.72;92.58;95625.09;5085059;28;20205;-72
2022/01/14 09:21:47;;;;;;;18.57;9.60;;;;;;;0.73;92.18;95623.31;5088353;28;20669;-83
2022/01/14 09:24:14;;;;;;;26.20;11.33;;;;;;;0.80;92.93;95626.97;5087855;28;20240;-81
2022/01/14 09:26:41;;;;;;;20.93;9.73;;;;;;;0.81;92.69;95636.28;5082326;28;20215;-83
2022/01/14 09:29:11;;;;;;;15.40;6.93;;;;;;;0.76;91.64;95621.31;5090499;28;20244;-82
2022/01/14 09:31:38;;;;;;;13.33;7.20;;;;;;;0.78;92.13;95619.44;5084583;28;20217;-82
2022/01/14 09:34:05;;;;;;;13.40;6.77;;;;;;;0.73;93.13;95613.91;5091063;28;20205;-81
2022/01/14 09:36:32;;;;;;;16.90;8.17;;;;;;;0.80;92.85;95598.84;5090261;28;20283;-86
2022/01/14 09:38:59;;;;;;;14.57;7.83;;;;;;;0.84;93.32;95605.28;5090956;28;20201;-86
2022/01/14 09:41:27;;;;;;;19.33;9.43;;;;;;;0.82;92.18;95605.44;5091211;28;20321;-85
2022/01/14 09:43:55;;;;;;;14.77;8.07;;;;;;;0.78;92.56;95582.84;5091112;28;20197;-83
2022/01/14 09:46:24;;;;;;;15.47;7.97;;;;;;;0.66;91.91;95581.34;5088584;28;20207;-84
2022/01/14 09:48:52;;;;;;;13.03;7.37;;;;;;;0.84;92.31;95603.53;5086811;28;20224;-85
2022/01/14 09:51:20;;;;;;;15.57;8.73;;;;;;;0.93;92.26;95589.94;5091787;28;20221;-87
2022/01/14 09:53:48;;;;;;;18.83;8.37;;;;;;;1.13;91.49;95599.22;5091753;28;20197;-82
2022/01/14 09:56:18;;;;;;;15.40;8.20;;;;;;;1.27;90.19;95585.16;5091392;28;20291;-82
2022/01/14 09:58:48;;;;;;;13.37;7.30;;;;;;;1.37;90.53;95574.91;5088632;28;20293;-81
2022/01/14 10:01:17;;;;;;;13.30;8.13;;;;;;;1.29;89.76;95552.56;5079989;28;20200;-80
2022/01/14 10:03:55;;;;;;;12.23;7.27;;;;;;;1.35;90.03;95564.81;5091460;28;20195;-83
2022/01/14 10:06:39;;;;;;;15.80;9.23;;;;;;;1.35;90.41;95561.47;5093278;28;20305;-82
2022/01/14 10:09:09;;;;;;;17.87;9.47;;;;;;;1.50;89.90;95554.94;5089062;28;20257;-82
2022/01/14 10:11:38;;;;;;;22.80;11.57;;;;;;;1.57;89.54;95543.19;5091367;28;20295;-79
2022/01/14 10:14:08;;;;;;;14.90;8.10;;;;;;;1.39;89.66;95549.97;5085790;28;20201;-82
2022/01/14 10:16:40;;;;;;;19.43;9.63;;;;;;;1.26;91.11;95546.94;5088927;28;20205;-81
2022/01/14 10:19:21;;;;;;;13.90;7.83;;;;;;;1.19;91.96;95533.88;5087857;28;20244;-85
2022/01/14 10:21:49;;;;;;;15.93;8.23;;;;;;;1.27;91.58;95531.41;5095594;28;20601;-75
2022/01/14 10:24:18;;;;;;;20.47;10.20;;;;;;;1.26;92.63;95529.00;5093107;28;20201;-81
2022/01/14 10:26:51;;;;;;;18.63;9.47;;;;;;;1.32;91.85;95524.13;5094078;28;20236;-82
2022/01/14 10:29:28;;;;;;;17.03;8.73;;;;;;;1.49;90.41;95523.41;5094370;28;20285;-82
2022/01/14 10:31:56;;;;;;;17.17;7.37;;;;;;;1.52;90.13;95512.88;5094005;28;20229;-82
2022/01/14 10:34:25;;;;;;;17.30;7.63;;;;;;;1.56;89.76;95508.25;5093002;28;20525;-82
2022/01/14 10:37:11;;;;;;;14.07;7.30;;;;;;;1.48;90.29;95511.53;5093792;28;20280;-85
2022/01/14 10:39:45;;;;;;;17.10;8.90;;;;;;;1.44;90.84;95488.94;5091389;28;20212;-82
2022/01/14 10:42:25;;;;;;;24.47;11.10;;;;;;;1.59;89.78;95498.53;5088089;28;20199;-81
2022/01/14 10:44:53;;;;;;;19.03;9.13;;;;;;;1.65;89.62;95497.97;5092143;28;20745;-82
2022/01/14 10:47:23;;;;;;;21.77;8.33;;;;;;;1.97;88.34;95514.66;5085759;28;20254;-82
2022/01/14 10:49:56;;;;;;;15.57;8.17;;;;;;;3.20;83.18;95493.25;5092699;28;20194;-82
2022/01/14 10:52:26;;;;;;;17.17;7.40;;;;;;;4.45;76.52;95508.59;5091836;28;20239;-82
2022/01/14 10:54:55;;;;;;;14.40;6.30;;;;;;;5.34;71.36;95489.72;5092486;28;20291;-80
2022/01/14 10:57:24;;;;;;;11.40;6.23;;;;;;;5.76;68.69;95487.66;5091498;28;20204;-81
2022/01/14 10:59:53;;;;;;;13.33;7.07;;;;;;;6.01;67.97;95473.69;5091829;28;20189;-81
2022/01/14 11:02:39;;;;;;;12.50;7.30;;;;;;;6.40;66.30;95473.63;5061564;28;20372;-81
2022/01/14 11:05:13;;;;;;;13.03;6.67;;;;;;;6.72;65.30;95488.88;5082272;28;20201;-77
2022/01/14 11:07:43;;;;;;;12.73;7.13;;;;;;;6.56;64.73;95493.34;5087615;28;20210;-77
2022/01/14 11:10:24;;;;;;;10.73;6.20;;;;;;;6.75;64.46;95480.00;5087117;28;20301;-80
2022/01/14 11:12:54;;;;;;;13.73;6.87;;;;;;;6.90;64.50;95474.88;5085635;28;20219;-78
2022/01/14 11:15:23;;;;;;;13.10;7.30;;;;;;;7.19;63.32;95469.72;5086863;28;20231;-78
2022/01/14 11:17:53;;;;;;;11.10;6.90;;;;;;;7.53;61.98;95471.81;5087653;28;20230;-78
2022/01/14 11:20:29;;;;;;;9.47;5.73;;;;;;;7.23;62.99;95470.97;5087115;28;20240;-83
2022/01/14 11:23:15;;;;;;;14.47;8.07;;;;;;;7.00;63.43;95442.63;5088959;28;20678;-82
2022/01/14 11:25:50;;;;;;;14.67;8.30;;;;;;;7.42;63.19;95449.75;5088674;28;20719;-83
2022/01/14 11:28:26;;;;;;;19.13;9.30;;;;;;;8.08;61.20;95437.66;5089872;28;20215;-82
2022/01/14 11:30:54;;;;;;;14.70;8.33;;;;;;;9.01;58.58;95440.91;5089782;28;20266;-83
2022/01/14 11:33:39;;;;;;;13.03;7.57;;;;;;;8.63;58.26;95424.06;5088849;28;20600;-81
2022/01/14 11:36:09;;;;;;;20.90;10.67;;;;;;;9.06;57.50;95428.19;5088353;28;20682;-81
2022/01/14 11:38:40;;;;;;;16.67;8.73;;;;;;;9.07;57.49;95428.00;5084267;28;20213;-81
2022/01/14 11:41:10;;;;;;;13.70;6.80;;;;;;;8.55;58.74;95412.03;5089673;28;20196;-82
2022/01/14 11:43:48;;;;;;;16.87;8.40;;;;;;;8.30;59.14;95413.41;5090612;28;20211;-82
2022/01/14 11:46:37;;;;;;;21.93;12.13;;;;;;;8.52;59.16;95405.44;5088820;28;20235;-90
2022/01/14 11:49:38;;;;;;;23.03;12.40;;;;;;;9.51;57.11;95414.69;5089723;28;20284;-83
2022/01/14 11:52:09;;;;;;;22.03;12.20;;;;;;;10.48;54.24;95409.19;5087387;28;20256;-83
2022/01/14 11:54:45;;;;;;;25.00;12.33;;;;;;;11.10;52.34;95396.63;5090178;28;20200;-85
2022/01/14 11:57:34;;;;;;;20.73;10.37;;;;;;;11.39;51.06;95408.38;5088984;28;20297;-91